Pocahontas, AR

6:53 PM CDT on April 24, 2017 (GMT -0500)
Walnut Ridge Regional | | Change Station
Active Advisory: Flood Warning

Elev 272 ft 36.13 °N, 90.92 °W | Updated 18 minutes ago

Clear
Clear
73 °F
Feels Like 73 °F
N
0
Wind Variable Wind from North

Today
High -- | Low -- °F
--% Chance of Precip.
Yesterday
High -- | Low -- °F
Precip. -- in
Pressure 29.74 in
Visibility 10.0 miles
Clouds Clear
Dew Point 48 °F
Humidity 41%
Rainfall 0.00 in
Snow Depth Not available.
6:18 AM 7:45 PM
Waning Crescent, 3% visible
METAR KARG 242335Z AUTO 00000KT 10SM CLR 23/09 A2974 RMK AO1
Pressure 29.74 in
Visibility 10.0 miles
Clouds Clear
Dew Point 48 °F
Humidity 41%
Rainfall 0.00 in
Snow Depth Not available.
6:18 AM 7:45 PM
Waning Crescent, 3% visible
METAR KARG 242335Z AUTO 00000KT 10SM CLR 23/09 A2974 RMK AO1

Get Your Daily Forecast Email!

Thanks for signing up!

Be on the lookout for a verification email in your inbox.

You'll start receiving severe weather alerts in your inbox..

×

10-Day Weather Forecast

Almanac

Astronomy

Apr. 24, 2017 Rise Set
Actual Time
Civil Twilight
Nautical Twilight
Astronomical Twilight
Moon
Length of Visible Light
Length of Day
Tomorrow will be .
, % of the Moon is Illuminated

Today's Extremes

State Highs State Lows

Community

WunderPhotos

WunderBlog® & News

Nearby

Air Quality

  Air Quality AQ Index Pollutant
Not available.

Snow Depth

Station Depth Elevation

Earthquake Activity

City Distance Mag. Time & Date
Minimum magnitude displayed is 2.5.

Coastal Water Temperatures

Place Temperature

Stations

Nearby Weather Stations

Station Location Temp. Windchill Dew Point Humidity Wind Precip. Elev Updated Type
                   

Watches & Warnings

Flood Warning
Issued: 10:37 AM CDT Apr. 24, 2017 – National Weather Service

... Flood Warning extended until further notice... the Flood Warning
continues for
the Black River at Pocahontas.
* From late tonight until further notice... or until the warning is
cancelled.
* At 10:00 am Monday the stage was 16.2 feet.
* Minor flooding is forecast.
* Flood stage is 17.0 feet.
* Forecast... rise above flood stage by early Monday morning and
continue to rise to near 18.0 feet by Wednesday morning. Additional
rainfall is expected later this week. Please monitor latest
forecasts for any updates.
* Impacts at 17.0 feet... agricultural lands along the river east and
south of Pocahontas will be impacted by high water. Equipment and
livestock should be moved to higher ground.




             Fld observed forecast 6 am
location stg stg day time Tue Wed Thu Fri Sat

Black River
Pocahontas 17 16.2 Mon 10 am 17.3 18.0 17.9 17.6 17.2




Lat... Lon 3612 9115 3625 9106 3630 9095 3620 9089
3617 9098 3610 9101